Time;durP1;ratioP1;P1;durP2;ratioP2;P2;SDS_P1;SDS_P2;PMS_P1;PMS_P2;Temp;Humidity;BMP_temperature;BMP_pressure;BME280_temperature;BME280_humidity;BME280_pressure;Samples;Min_cycle;Max_cycle;Signal;HPM_P1;HPM_P2
2021/10/27 00:02:14;;;;;;;4.88;3.97;;;;;;;7.04;nan;101458.28;5030713;28;20038;-76
2021/10/27 00:04:39;;;;;;;6.13;4.00;;;;;;;7.04;nan;101466.19;5030757;28;20041;-76
2021/10/27 00:07:04;;;;;;;8.82;4.65;;;;;;;7.08;nan;101462.38;5030764;28;20056;-76
2021/10/27 00:09:30;;;;;;;5.10;4.10;;;;;;;7.00;nan;101469.00;5030879;28;20037;-77
2021/10/27 00:11:55;;;;;;;5.30;4.13;;;;;;;7.01;nan;101460.19;5031184;28;20103;-77
2021/10/27 00:14:21;;;;;;;7.07;4.38;;;;;;;7.05;nan;101450.28;5028742;28;20045;-76
2021/10/27 00:16:46;;;;;;;5.55;4.10;;;;;;;7.12;nan;101450.69;5030828;28;20060;-77
2021/10/27 00:19:12;;;;;;;8.27;4.72;;;;;;;7.28;nan;101455.75;5031093;28;20030;-77
2021/10/27 00:21:38;;;;;;;8.13;4.75;;;;;;;7.31;nan;101458.97;5030977;28;20451;-77
2021/10/27 00:24:04;;;;;;;8.07;4.55;;;;;;;7.33;nan;101453.63;5031215;28;20125;-77
2021/10/27 00:26:30;;;;;;;6.25;4.32;;;;;;;7.33;nan;101453.63;5030814;28;20422;-77
2021/10/27 00:28:55;;;;;;;6.55;4.07;;;;;;;7.35;nan;101460.47;5030897;28;20041;-77
2021/10/27 00:31:20;;;;;;;7.38;4.30;;;;;;;7.41;nan;101464.44;5031427;28;20109;-77
2021/10/27 00:33:46;;;;;;;5.53;4.20;;;;;;;7.44;nan;101459.81;5031168;28;20025;-77
2021/10/27 00:36:11;;;;;;;5.22;4.10;;;;;;;7.50;nan;101460.31;5030057;28;20025;-77
2021/10/27 00:38:37;;;;;;;6.82;4.55;;;;;;;7.59;nan;101467.56;5030596;28;20600;-77
2021/10/27 00:41:06;;;;;;;8.43;4.65;;;;;;;7.68;nan;101469.56;5030453;28;20033;-77
2021/10/27 00:43:31;;;;;;;7.72;4.70;;;;;;;7.77;nan;101471.53;5030455;28;20040;-77
2021/10/27 00:45:56;;;;;;;9.35;5.10;;;;;;;7.89;nan;101464.53;5029947;28;20025;-77
2021/10/27 00:48:22;;;;;;;8.48;5.47;;;;;;;8.02;nan;101467.09;5030037;28;20034;-77
2021/10/27 00:50:47;;;;;;;6.57;5.00;;;;;;;8.09;nan;101469.16;5030451;28;20033;-77
2021/10/27 00:53:13;;;;;;;12.25;5.80;;;;;;;8.25;nan;101468.06;5028936;28;20037;-77
2021/10/27 00:55:39;;;;;;;10.23;5.80;;;;;;;8.32;nan;101477.19;5030346;28;20061;-77
2021/10/27 00:58:05;;;;;;;7.57;5.20;;;;;;;8.40;nan;101474.00;5030337;28;20030;-77
2021/10/27 01:00:31;;;;;;;7.07;5.28;;;;;;;8.51;nan;101474.06;5029996;28;20030;-77
2021/10/27 01:02:56;;;;;;;7.95;5.80;;;;;;;8.57;nan;101481.50;5029827;28;20461;-77
2021/10/27 01:05:21;;;;;;;7.22;5.35;;;;;;;8.66;nan;101482.59;5028979;28;20029;-77
2021/10/27 01:07:47;;;;;;;8.30;5.22;;;;;;;8.76;nan;101475.66;5030391;28;20062;-77
2021/10/27 01:10:12;;;;;;;8.00;5.22;;;;;;;8.78;nan;101476.41;5029718;28;20310;-76
2021/10/27 01:12:39;;;;;;;11.82;5.60;;;;;;;8.87;nan;101480.97;5030362;28;20498;-76
2021/10/27 01:15:05;;;;;;;8.00;4.80;;;;;;;8.89;nan;101479.06;5030130;28;20037;-77
2021/10/27 01:17:31;;;;;;;7.93;4.90;;;;;;;8.95;nan;101472.47;5029977;28;20387;-76
2021/10/27 01:19:59;;;;;;;6.55;4.72;;;;;;;9.00;nan;101478.22;5030518;28;20033;-77
2021/10/27 01:22:34;;;;;;;6.30;4.55;;;;;;;9.06;nan;101476.94;5029821;28;20712;-77
2021/10/27 01:25:00;;;;;;;4.25;3.40;;;;;;;9.08;nan;101475.84;5029790;28;20034;-77
2021/10/27 01:27:26;;;;;;;5.30;3.58;;;;;;;9.12;nan;101473.78;5029952;28;20036;-77
2021/10/27 01:29:51;;;;;;;5.85;3.97;;;;;;;9.12;nan;101471.16;5028423;28;20108;-77
2021/10/27 01:32:27;;;;;;;6.05;3.83;;;;;;;9.14;nan;101463.97;5029355;28;20033;-77
2021/10/27 01:34:53;;;;;;;5.43;3.78;;;;;;;9.16;nan;101463.88;5029551;28;20030;-77
2021/10/27 01:37:19;;;;;;;6.43;3.80;;;;;;;9.14;nan;101466.59;5029851;28;20037;-76
2021/10/27 01:39:45;;;;;;;5.13;3.67;;;;;;;9.14;nan;101461.34;5029491;28;20037;-77
2021/10/27 01:42:11;;;;;;;4.55;3.35;;;;;;;9.19;nan;101466.25;5029148;28;20029;-76
2021/10/27 01:44:36;;;;;;;4.28;3.13;;;;;;;9.21;nan;101464.34;5029338;28;20043;-77
2021/10/27 01:47:01;;;;;;;4.63;2.92;;;;;;;9.25;nan;101455.22;5029833;28;20513;-76
2021/10/27 01:49:27;;;;;;;4.05;3.40;;;;;;;9.28;nan;101454.97;5029356;28;20124;-76
2021/10/27 01:51:52;;;;;;;4.38;2.72;;;;;;;9.29;nan;101454.00;5029924;28;20043;-77
2021/10/27 01:54:18;;;;;;;5.72;3.92;;;;;;;9.33;nan;101447.53;5029276;28;20394;-77
2021/10/27 01:56:43;;;;;;;5.22;3.70;;;;;;;9.37;nan;101454.25;5030524;28;20405;-77
2021/10/27 01:59:08;;;;;;;5.55;3.40;;;;;;;9.39;nan;101454.13;5033392;28;20110;-77
2021/10/27 02:01:34;;;;;;;5.03;3.63;;;;;;;9.42;nan;101452.09;5031651;28;20391;-77
2021/10/27 02:03:59;;;;;;;5.40;3.55;;;;;;;9.46;nan;101450.91;5033352;28;20040;-77
2021/10/27 02:06:25;;;;;;;8.77;4.35;;;;;;;9.49;nan;101455.09;5032777;28;20124;-77
2021/10/27 02:08:50;;;;;;;6.07;3.45;;;;;;;9.48;nan;101454.22;5032821;28;20044;-76
2021/10/27 02:11:15;;;;;;;15.43;7.05;;;;;;;9.53;nan;101453.88;5033159;28;20398;-77
2021/10/27 02:13:41;;;;;;;13.45;6.68;;;;;;;9.49;nan;101453.28;5033429;28;20406;-76
2021/10/27 02:16:08;;;;;;;10.35;4.93;;;;;;;9.45;nan;101457.13;5032333;28;20030;-76
2021/10/27 02:18:33;;;;;;;11.77;5.93;;;;;;;9.51;nan;101454.00;5033004;28;20048;-77
2021/10/27 02:20:59;;;;;;;14.25;6.68;;;;;;;9.49;nan;101447.16;5033245;28;20188;-77
2021/10/27 02:23:24;;;;;;;12.82;4.97;;;;;;;9.49;nan;101452.44;5032805;28;20414;-77
2021/10/27 02:25:50;;;;;;;9.73;4.40;;;;;;;9.45;nan;101451.84;5031231;28;20037;-77
2021/10/27 02:28:15;;;;;;;8.00;4.05;;;;;;;9.46;nan;101450.91;5032032;28;20033;-77
2021/10/27 02:30:41;;;;;;;6.45;3.28;;;;;;;9.45;nan;101443.91;5032267;28;20109;-77
2021/10/27 02:33:07;;;;;;;7.07;3.30;;;;;;;9.45;nan;101443.91;5031832;28;20026;-77
2021/10/27 02:35:32;;;;;;;5.28;3.00;;;;;;;9.42;nan;101446.81;5032337;28;20083;-77
2021/10/27 02:37:58;;;;;;;4.88;2.70;;;;;;;9.42;nan;101444.16;5032460;28;20092;-76
2021/10/27 02:40:24;;;;;;;4.30;2.85;;;;;;;9.44;nan;101449.31;5031909;28;20116;-77
2021/10/27 02:42:50;;;;;;;4.07;2.72;;;;;;;9.42;nan;101452.09;5031207;28;20117;-77
2021/10/27 02:45:15;;;;;;;4.55;3.00;;;;;;;9.40;nan;101450.53;5032560;28;20029;-77
2021/10/27 02:47:46;;;;;;;4.13;2.90;;;;;;;9.39;nan;101460.25;5032737;28;20222;-77
2021/10/27 02:50:13;;;;;;;;;;;;;;;9.42;nan;101460.00;5012814;28;20029;-77
2021/10/27 02:52:40;;;;;;;5.22;2.30;;;;;;;9.39;nan;101467.31;5012798;28;19913;-77
2021/10/27 02:55:07;;;;;;;3.70;2.60;;;;;;;9.40;nan;101456.66;5012135;28;20038;-76
2021/10/27 02:57:33;;;;;;;4.28;2.88;;;;;;;9.44;nan;101462.50;5012504;28;20232;-77
2021/10/27 02:59:58;;;;;;;3.53;2.72;;;;;;;9.45;nan;101457.13;5011202;28;20034;-77
2021/10/27 03:02:24;;;;;;;6.35;3.35;;;;;;;9.50;nan;101456.75;5012110;28;20053;-77
2021/10/27 03:04:50;;;;;;;5.90;3.47;;;;;;;9.50;nan;101454.94;5012424;28;20030;-77
2021/10/27 03:07:15;;;;;;;6.32;3.45;;;;;;;9.52;nan;101452.19;5012052;28;20177;-77
2021/10/27 03:09:40;;;;;;;7.22;3.70;;;;;;;9.59;nan;101457.84;5012483;28;20495;-77
2021/10/27 03:12:06;;;;;;;5.10;3.10;;;;;;;9.63;nan;101451.31;5010541;28;20026;-77
2021/10/27 03:14:32;;;;;;;3.97;2.88;;;;;;;9.64;nan;101453.03;5018791;28;20382;-76
2021/10/27 03:16:57;;;;;;;4.97;3.42;;;;;;;9.66;nan;101457.22;5032202;28;20059;-77
2021/10/27 03:19:23;;;;;;;5.00;3.15;;;;;;;9.69;nan;101458.78;5031172;28;20037;-77
2021/10/27 03:21:48;;;;;;;6.53;3.10;;;;;;;9.73;nan;101455.75;5032260;28;20040;-77
2021/10/27 03:24:14;;;;;;;8.68;3.30;;;;;;;9.73;nan;101449.66;5031743;28;20056;-77
2021/10/27 03:26:40;;;;;;;4.68;3.30;;;;;;;9.75;nan;101455.66;5032386;28;20033;-77
2021/10/27 03:29:05;;;;;;;6.97;3.78;;;;;;;9.77;nan;101462.47;5032103;28;20029;-77
2021/10/27 03:31:30;;;;;;;6.45;4.25;;;;;;;9.79;nan;101459.69;5032241;28;20037;-77
2021/10/27 03:33:57;;;;;;;4.82;3.22;;;;;;;9.82;nan;101454.19;5032166;28;20033;-77
2021/10/27 03:36:22;;;;;;;6.28;3.53;;;;;;;9.83;nan;101458.50;5031293;28;20033;-77
2021/10/27 03:38:48;;;;;;;7.25;4.05;;;;;;;9.87;nan;101461.75;5031863;28;20087;-76
2021/10/27 03:41:13;;;;;;;6.22;3.28;;;;;;;9.84;nan;101457.53;5032228;28;20034;-77
2021/10/27 03:43:39;;;;;;;6.63;3.67;;;;;;;9.89;nan;101460.66;5032178;28;20121;-77
2021/10/27 03:46:04;;;;;;;6.78;3.20;;;;;;;9.88;nan;101461.59;5033528;28;20053;-77
2021/10/27 03:48:30;;;;;;;6.72;3.30;;;;;;;9.89;nan;101460.66;5036092;28;20438;-76
2021/10/27 03:50:55;;;;;;;5.18;2.95;;;;;;;9.90;nan;101462.31;5037664;28;20026;-77
2021/10/27 03:53:20;;;;;;;5.38;3.00;;;;;;;9.88;nan;101464.25;5037452;28;20034;-77
2021/10/27 03:55:45;;;;;;;5.47;3.13;;;;;;;9.92;nan;101459.56;5035880;28;20132;-77
2021/10/27 03:58:11;;;;;;;8.65;3.70;;;;;;;9.93;nan;101454.13;5031879;28;20022;-77
2021/10/27 04:00:39;;;;;;;7.13;3.85;;;;;;;9.98;nan;101464.34;5032229;28;20389;-77
2021/10/27 04:03:05;;;;;;;6.03;3.30;;;;;;;9.97;nan;101463.50;5031630;28;20061;-76
2021/10/27 04:05:31;;;;;;;6.53;3.25;;;;;;;10.03;nan;101461.31;5031026;28;20103;-77
2021/10/27 04:07:56;;;;;;;5.45;3.13;;;;;;;9.98;nan;101459.03;5030972;28;20542;-76
2021/10/27 04:10:22;;;;;;;7.18;3.67;;;;;;;10.03;nan;101461.31;5029216;28;20034;-77
2021/10/27 04:12:47;;;;;;;5.80;3.42;;;;;;;10.06;nan;101461.06;5030714;28;20040;-77
2021/10/27 04:15:13;;;;;;;5.80;3.38;;;;;;;10.04;nan;101466.50;5031010;28;20291;-77
2021/10/27 04:17:39;;;;;;;6.18;3.25;;;;;;;10.06;nan;101472.50;5030548;28;20034;-77
2021/10/27 04:20:08;;;;;;;6.13;3.53;;;;;;;10.07;nan;101475.97;5030026;28;20037;-77
2021/10/27 04:22:34;;;;;;;7.32;3.50;;;;;;;10.10;nan;101467.78;5030698;28;20037;-77
2021/10/27 04:24:59;;;;;;;6.57;3.85;;;;;;;10.11;nan;101470.31;5030994;28;20556;-77
2021/10/27 04:27:25;;;;;;;7.35;3.97;;;;;;;10.12;nan;101466.69;5030842;28;20029;-77
2021/10/27 04:29:50;;;;;;;5.80;3.65;;;;;;;10.11;nan;101466.84;5031015;28;20054;-77
2021/10/27 04:32:16;;;;;;;10.07;3.55;;;;;;;10.12;nan;101479.91;5030442;28;20034;-77
2021/10/27 04:34:41;;;;;;;7.45;3.85;;;;;;;10.15;nan;101477.03;5030223;28;20044;-76
2021/10/27 04:37:08;;;;;;;7.90;3.88;;;;;;;10.16;nan;101478.69;5030714;28;20037;-77
2021/10/27 04:39:34;;;;;;;8.05;3.78;;;;;;;10.21;nan;101470.38;5030754;28;20079;-77
2021/10/27 04:41:59;;;;;;;5.85;3.47;;;;;;;10.16;nan;101478.69;5030468;28;20506;-77
2021/10/27 04:44:24;;;;;;;7.05;3.50;;;;;;;10.17;nan;101485.66;5030235;28;20030;-77
2021/10/27 04:46:50;;;;;;;7.28;3.75;;;;;;;10.16;nan;101483.97;5030937;28;20144;-77
2021/10/27 04:49:15;;;;;;;6.18;3.63;;;;;;;10.15;nan;101484.09;5029963;28;20044;-77
2021/10/27 04:51:40;;;;;;;5.68;3.30;;;;;;;10.17;nan;101480.34;5030589;28;20033;-76
2021/10/27 04:54:06;;;;;;;6.38;3.92;;;;;;;10.22;nan;101490.56;5030149;28;20172;-77
2021/10/27 04:56:31;;;;;;;4.47;3.00;;;;;;;10.24;nan;101487.81;5030153;28;20030;-77
2021/10/27 04:58:56;;;;;;;4.57;3.15;;;;;;;10.18;nan;101484.69;5030422;28;20030;-76
2021/10/27 05:01:22;;;;;;;5.25;3.15;;;;;;;10.18;nan;101484.69;5028865;28;20171;-77
2021/10/27 05:03:47;;;;;;;6.28;3.22;;;;;;;10.18;nan;101487.34;5030306;28;20116;-77
2021/10/27 05:06:12;;;;;;;6.32;3.33;;;;;;;10.17;nan;101490.09;5029313;28;20658;-77
2021/10/27 05:08:39;;;;;;;4.68;3.15;;;;;;;10.21;nan;101495.00;5029465;28;20048;-77
2021/10/27 05:11:04;;;;;;;7.28;3.25;;;;;;;10.27;nan;101491.00;5030310;28;20041;-77
2021/10/27 05:13:30;;;;;;;6.25;3.30;;;;;;;10.28;nan;101491.88;5029224;28;20030;-77
2021/10/27 05:15:55;;;;;;;5.30;3.33;;;;;;;10.28;nan;101498.03;5029281;28;20044;-77
2021/10/27 05:18:20;;;;;;;6.65;3.40;;;;;;;10.26;nan;101492.00;5028877;28;20268;-77
2021/10/27 05:20:47;;;;;;;5.45;3.70;;;;;;;10.25;nan;101498.25;5031806;28;20033;-77
2021/10/27 05:23:13;;;;;;;6.10;3.70;;;;;;;10.28;nan;101500.66;5031997;28;20052;-77
2021/10/27 05:25:39;;;;;;;7.32;3.75;;;;;;;10.29;nan;101489.13;5031530;28;20029;-77
2021/10/27 05:28:05;;;;;;;6.43;3.47;;;;;;;10.24;nan;101496.56;5030769;28;20036;-77
2021/10/27 05:30:30;;;;;;;5.88;3.30;;;;;;;10.24;nan;101495.72;5030971;28;20029;-77
2021/10/27 05:32:57;;;;;;;6.50;3.60;;;;;;;10.26;nan;101499.09;5035159;28;20120;-77
2021/10/27 05:35:27;;;;;;;5.57;3.30;;;;;;;10.23;nan;101494.91;5034450;28;20033;-77
2021/10/27 05:37:54;;;;;;;7.90;3.70;;;;;;;10.28;nan;101497.16;5034803;28;20037;-77
2021/10/27 05:40:20;;;;;;;5.80;3.58;;;;;;;10.26;nan;101499.09;5034348;28;20033;-77
2021/10/27 05:42:46;;;;;;;6.28;4.03;;;;;;;10.32;nan;101491.53;5032880;28;20112;-77
2021/10/27 05:45:11;;;;;;;6.07;3.63;;;;;;;10.31;nan;101491.66;5034062;28;20413;-77
2021/10/27 05:47:40;;;;;;;9.30;4.00;;;;;;;10.28;nan;101495.38;5034188;28;20120;-78
2021/10/27 05:50:23;;;;;;;6.90;3.80;;;;;;;10.28;nan;101498.03;5034890;28;20034;-77
2021/10/27 05:55:35;;;;;;;4.82;3.30;;;;;;;10.26;nan;101499.91;5034614;28;20056;-77
2021/10/27 05:58:01;;;;;;;5.72;3.20;;;;;;;10.30;nan;101496.09;5034305;28;20029;-77
2021/10/27 06:00:27;;;;;;;8.95;3.53;;;;;;;10.31;nan;101495.13;5033450;28;20048;-77
2021/10/27 06:02:52;;;;;;;6.22;4.20;;;;;;;10.31;nan;101497.78;5032279;28;20029;-77
2021/10/27 06:05:17;;;;;;;7.43;3.85;;;;;;;10.31;nan;101496.94;5033975;28;20138;-77
2021/10/27 06:07:43;;;;;;;6.35;4.30;;;;;;;10.36;nan;101494.75;5033897;28;20108;-77
2021/10/27 06:10:12;;;;;;;9.13;4.30;;;;;;;10.37;nan;101507.03;5033194;28;20038;-77
2021/10/27 06:12:38;;;;;;;9.45;4.35;;;;;;;10.38;nan;101498.94;5033594;28;20034;-77
2021/10/27 06:15:04;;;;;;;10.10;4.30;;;;;;;10.32;nan;101502.09;5032388;28;20034;-77
2021/10/27 06:17:30;;;;;;;6.18;4.10;;;;;;;10.36;nan;101506.16;5034074;28;20144;-77
2021/10/27 06:19:55;;;;;;;8.35;4.40;;;;;;;10.43;nan;101510.94;5031970;28;20109;-77
2021/10/27 06:22:21;;;;;;;6.22;4.60;;;;;;;10.35;nan;101512.41;5033298;28;20030;-77
2021/10/27 06:24:47;;;;;;;7.43;4.57;;;;;;;10.41;nan;101506.59;5033528;28;20490;-77
2021/10/27 06:27:13;;;;;;;8.50;5.05;;;;;;;10.47;nan;101507.09;5033340;28;20072;-77
2021/10/27 06:29:44;;;;;;;10.48;5.10;;;;;;;10.48;nan;101511.41;5032527;28;20034;-76
2021/10/27 06:34:42;;;;;;;6.30;4.13;;;;;;;10.50;nan;101509.47;5033114;28;20118;-77
2021/10/27 06:37:22;;;;;;;8.50;4.95;;;;;;;10.50;nan;101514.75;5032158;28;20041;-77
2021/10/27 06:45:57;;;;;;;6.43;4.43;;;;;;;10.58;nan;101515.81;5033150;28;20034;-79
2021/10/27 06:48:01;;;;;;;7.30;4.38;;;;;;;10.63;nan;101526.84;5032856;28;20106;-77
2021/10/27 06:50:27;;;;;;;6.57;3.80;;;;;;;10.61;nan;101523.50;5032746;28;20112;-77
2021/10/27 06:52:53;;;;;;;7.10;3.83;;;;;;;10.65;nan;101532.00;5033121;28;20087;-77
2021/10/27 06:55:18;;;;;;;6.85;3.80;;;;;;;10.63;nan;101536.59;5032711;28;20033;-77
2021/10/27 06:57:44;;;;;;;5.45;4.18;;;;;;;10.69;nan;101548.47;5032735;28;20041;-77
2021/10/27 07:00:22;;;;;;;6.47;4.15;;;;;;;10.80;nan;101545.78;5032160;28;20037;-77
2021/10/27 07:16:22;;;;;;;6.30;3.97;;;;;;;10.87;nan;101557.53;5011930;28;20390;-77
2021/10/27 07:18:48;;;;;;;6.30;3.72;;;;;;;10.88;nan;101563.66;5012592;28;20037;-77
2021/10/27 07:21:13;;;;;;;7.78;4.00;;;;;;;10.93;nan;101570.22;5012631;28;20117;-77
2021/10/27 07:23:40;;;;;;;8.80;4.47;;;;;;;11.00;nan;101571.38;5012115;28;20030;-76
2021/10/27 07:26:06;;;;;;;7.03;4.00;;;;;;;11.03;nan;101568.47;5010503;28;20076;-77
2021/10/27 07:28:31;;;;;;;6.65;4.13;;;;;;;11.09;nan;101568.94;5012006;28;20064;-77
2021/10/27 07:30:58;;;;;;;7.03;4.22;;;;;;;11.11;nan;101574.94;5012358;28;20030;-77
2021/10/27 07:33:26;;;;;;;9.38;4.32;;;;;;;11.12;nan;101566.88;5017162;28;20040;-77
2021/10/27 07:35:57;;;;;;;8.38;4.57;;;;;;;11.17;nan;101569.97;5031767;28;20030;-77
2021/10/27 07:41:07;;;;;;;6.75;4.25;;;;;;;11.22;nan;101566.94;5032067;28;20067;-77
2021/10/27 07:43:33;;;;;;;5.30;3.88;;;;;;;11.20;nan;101567.06;5031578;28;20456;-77
2021/10/27 07:46:00;;;;;;;6.82;4.55;;;;;;;11.32;nan;101572.28;5031812;28;20041;-76
2021/10/27 07:48:26;;;;;;;7.25;4.40;;;;;;;11.24;nan;101579.06;5029435;28;20517;-77
2021/10/27 07:50:52;;;;;;;7.05;4.72;;;;;;;11.34;nan;101576.47;5031728;28;20037;-77
2021/10/27 07:53:18;;;;;;;8.18;4.72;;;;;;;11.36;nan;101576.34;5031590;28;20034;-77
2021/10/27 07:55:45;;;;;;;9.73;5.25;;;;;;;11.49;nan;101579.63;5030606;28;20306;-77
2021/10/27 07:58:13;;;;;;;11.35;5.28;;;;;;;11.48;nan;101578.78;5030886;28;20025;-77
2021/10/27 08:00:39;;;;;;;6.18;4.45;;;;;;;11.46;nan;101578.09;5031419;28;20116;-77
2021/10/27 08:03:04;;;;;;;7.82;4.75;;;;;;;11.63;nan;101579.28;5030277;28;20045;-77
2021/10/27 08:05:32;;;;;;;7.53;4.18;;;;;;;11.63;nan;101581.94;5031203;28;20525;-77
2021/10/27 08:07:57;;;;;;;7.47;4.43;;;;;;;11.67;nan;101582.50;5031239;28;20041;-77
2021/10/27 08:10:25;;;;;;;6.90;4.07;;;;;;;11.80;nan;101592.88;5029969;28;20057;-77
2021/10/27 08:12:50;;;;;;;8.10;4.47;;;;;;;11.82;nan;101591.78;5030174;28;20052;-77
2021/10/27 08:15:19;;;;;;;8.85;4.30;;;;;;;11.96;nan;101581.78;5029889;28;20060;-77
2021/10/27 08:17:44;;;;;;;7.60;4.72;;;;;;;12.00;nan;101581.38;5031175;28;20047;-77
2021/10/27 08:20:12;;;;;;;8.00;4.65;;;;;;;12.02;nan;101583.91;5029536;28;20025;-77
2021/10/27 08:22:39;;;;;;;8.05;4.53;;;;;;;12.00;nan;101589.34;5029920;28;20084;-77
2021/10/27 08:25:07;;;;;;;6.03;3.90;;;;;;;11.89;nan;101592.94;5030891;28;20030;-77
2021/10/27 08:27:36;;;;;;;6.97;4.03;;;;;;;11.99;nan;101586.81;5031079;28;20426;-77
2021/10/27 08:30:06;;;;;;;10.65;4.70;;;;;;;12.04;nan;101582.81;5031316;28;20133;-77
2021/10/27 08:32:44;;;;;;;7.30;3.90;;;;;;;12.01;nan;101575.13;5030693;28;20067;-77
2021/10/27 08:35:13;;;;;;;7.57;4.10;;;;;;;11.98;nan;101585.97;5030956;28;20037;-77
2021/10/27 08:37:46;;;;;;;7.00;3.65;;;;;;;11.85;nan;101583.53;5031080;28;20086;-77
2021/10/27 08:40:14;;;;;;;4.75;3.38;;;;;;;11.87;nan;101584.28;5030386;28;20022;-77
2021/10/27 08:42:41;;;;;;;5.15;3.35;;;;;;;12.01;nan;101583.09;5030543;28;20052;-77
2021/10/27 08:45:07;;;;;;;5.10;3.20;;;;;;;12.01;nan;101588.38;5031211;28;20036;-77
2021/10/27 08:47:33;;;;;;;6.28;3.72;;;;;;;12.03;nan;101589.06;5029681;28;20037;-77
2021/10/27 08:50:00;;;;;;;4.35;2.88;;;;;;;12.03;nan;101589.06;5031012;28;20061;-77
2021/10/27 08:52:25;;;;;;;4.32;2.58;;;;;;;12.04;nan;101585.44;5030380;28;20040;-77
2021/10/27 08:54:51;;;;;;;6.38;3.67;;;;;;;12.06;nan;101586.16;5030820;28;20402;-76
2021/10/27 08:57:18;;;;;;;5.22;3.00;;;;;;;11.99;nan;101578.84;5030745;28;20107;-77
2021/10/27 08:59:48;;;;;;;8.63;3.67;;;;;;;12.01;nan;101576.91;5030973;28;20034;-77
2021/10/27 09:07:28;;;;;;;5.95;3.42;;;;;;;12.14;nan;101568.72;5030710;28;20084;-77
2021/10/27 09:10:22;;;;;;;5.18;3.35;;;;;;;12.07;nan;101563.97;5028684;28;20565;-77
2021/10/27 10:06:26;;;;;;;4.68;2.45;;;;;;;13.90;nan;101544.44;5029670;28;20657;-77
2021/10/27 10:08:53;;;;;;;4.40;2.40;;;;;;;13.93;nan;101540.63;5029719;28;20083;-77
2021/10/27 10:11:20;;;;;;;4.28;2.33;;;;;;;14.03;nan;101538.75;5030637;28;20029;-78
2021/10/27 10:13:47;;;;;;;6.30;2.58;;;;;;;14.27;nan;101524.84;5030299;28;20034;-77
2021/10/27 10:16:14;;;;;;;5.15;2.40;;;;;;;14.35;nan;101532.06;5030097;28;20036;-77
2021/10/27 10:18:41;;;;;;;4.18;2.08;;;;;;;14.31;nan;101536.88;5032390;28;20442;-77
2021/10/27 10:21:08;;;;;;;3.15;1.80;;;;;;;14.40;nan;101533.31;5032530;28;20040;-77
2021/10/27 10:23:33;;;;;;;4.70;2.22;;;;;;;14.55;nan;101528.31;5032202;28;20037;-77
2021/10/27 10:26:06;;;;;;;4.65;2.33;;;;;;;14.48;nan;101529.06;5033813;28;20029;-77
2021/10/27 10:28:40;;;;;;;3.97;2.20;;;;;;;14.35;nan;101527.63;5031987;28;20199;-77
2021/10/27 10:31:08;;;;;;;5.85;2.35;;;;;;;14.42;nan;101523.34;5033352;28;20026;-77
2021/10/27 10:33:41;;;;;;;4.28;2.40;;;;;;;14.35;nan;101518.78;5032498;28;20034;-77
2021/10/27 10:36:30;;;;;;;4.40;2.20;;;;;;;14.56;nan;101530.00;5033234;28;20445;-77
2021/10/27 10:41:44;;;;;;;4.50;2.00;;;;;;;14.50;nan;101521.75;5033570;28;20395;-77
2021/10/27 11:37:55;;;;;;;4.85;1.65;;;;;;;15.44;nan;101492.59;5032717;28;20509;-77
2021/10/27 11:40:35;;;;;;;3.50;1.70;;;;;;;15.55;nan;101482.66;5032511;28;20038;-77
2021/10/27 11:48:11;;;;;;;5.60;2.08;;;;;;;15.57;nan;101480.66;5032781;28;19919;-77
2021/10/27 11:50:39;;;;;;;3.05;1.63;;;;;;;15.68;nan;101475.00;5032828;28;20034;-77
2021/10/27 11:53:17;;;;;;;4.18;1.85;;;;;;;15.82;nan;101470.91;5030968;28;20399;-76
2021/10/27 11:55:43;;;;;;;3.63;1.60;;;;;;;15.78;nan;101473.09;5030852;28;20033;-76
2021/10/27 11:58:08;;;;;;;4.20;1.60;;;;;;;15.96;nan;101469.47;5030689;28;20036;-76
2021/10/27 12:00:45;;;;;;;5.60;1.70;;;;;;;16.01;nan;101467.97;5031048;28;20037;-76
2021/10/27 12:03:17;;;;;;;4.90;2.17;;;;;;;15.91;nan;101461.94;5030729;28;20444;-76
2021/10/27 12:11:15;;;;;;;4.43;1.92;;;;;;;16.05;nan;101445.28;5030605;28;20052;-76
2021/10/27 12:13:55;;;;;;;3.85;1.80;;;;;;;15.95;nan;101435.78;5030547;28;20040;-76
2021/10/27 12:19:05;;;;;;;4.32;2.00;;;;;;;15.55;nan;101435.50;5010935;28;20155;-76
2021/10/27 12:21:30;;;;;;;4.68;2.25;;;;;;;15.57;nan;101428.19;5009885;28;20029;-76
2021/10/27 12:23:56;;;;;;;3.40;1.83;;;;;;;15.40;nan;101426.47;5011032;28;20491;-76
2021/10/27 12:26:24;;;;;;;4.20;2.00;;;;;;;15.28;nan;101423.25;5009988;28;20037;-76
2021/10/27 12:29:14;;;;;;;4.03;1.73;;;;;;;15.38;nan;101412.47;5010816;28;20038;-76
2021/10/27 12:31:41;;;;;;;5.00;1.98;;;;;;;15.48;nan;101416.66;5010677;28;20029;-76
2021/10/27 12:34:25;;;;;;;3.75;2.15;;;;;;;15.29;nan;101414.25;5020934;28;20033;-78
2021/10/27 12:36:53;;;;;;;4.50;2.13;;;;;;;15.24;nan;101408.56;5030556;28;20049;-76
2021/10/27 12:39:30;;;;;;;4.07;2.22;;;;;;;15.12;nan;101412.53;5030174;28;20034;-76
2021/10/27 12:42:09;;;;;;;4.90;2.10;;;;;;;15.01;nan;101408.28;5029531;28;20044;-75
2021/10/27 12:44:53;;;;;;;3.70;1.90;;;;;;;15.08;nan;101404.00;5029341;28;20632;-76
2021/10/27 12:47:23;;;;;;;4.45;1.80;;;;;;;15.18;nan;101406.53;5030084;28;20038;-76
2021/10/27 12:50:02;;;;;;;4.97;1.90;;;;;;;15.35;nan;101396.78;5028846;28;20037;-76
2021/10/27 12:52:32;;;;;;;4.55;2.05;;;;;;;15.25;nan;101402.25;5029406;28;20034;-76
2021/10/27 12:55:11;;;;;;;5.45;2.00;;;;;;;15.20;nan;101401.88;5029603;28;20438;-77
2021/10/27 12:58:18;;;;;;;4.97;2.00;;;;;;;15.17;nan;101392.38;5030050;28;20041;-77
2021/10/27 13:01:10;;;;;;;6.47;2.22;;;;;;;15.31;nan;101387.44;5024694;28;20038;-76
2021/10/27 13:19:59;;;;;;;3.97;1.90;;;;;;;15.13;nan;101363.56;5030005;28;20032;-76
2021/10/27 13:33:16;;;;;;;5.40;2.40;;;;;;;15.44;nan;101369.97;5030105;28;20072;-77
2021/10/27 13:35:41;;;;;;;4.57;2.17;;;;;;;15.45;nan;101363.66;5029677;28;20120;-77
2021/10/27 13:38:08;;;;;;;4.35;2.00;;;;;;;15.45;nan;101357.50;5029318;28;20533;-77
2021/10/27 13:40:36;;;;;;;7.30;2.45;;;;;;;15.47;nan;101360.84;5029371;28;20108;-76
2021/10/27 13:43:24;;;;;;;4.18;2.33;;;;;;;15.43;nan;101359.50;5029764;28;20036;-77
2021/10/27 13:46:10;;;;;;;5.00;2.38;;;;;;;15.28;nan;101353.97;5029224;28;20041;-77
2021/10/27 14:07:33;;;;;;;4.82;2.40;;;;;;;15.09;nan;101341.75;5034411;28;20033;-77
2021/10/27 14:10:28;;;;;;;4.47;2.30;;;;;;;15.09;nan;101333.75;5034324;28;20087;-77
2021/10/27 14:12:57;;;;;;;5.68;2.60;;;;;;;15.12;nan;101327.28;5033203;28;20042;-77
2021/10/27 15:20:37;;;;;;;2.45;1.73;;;;;;;14.35;nan;101266.00;5032491;28;20040;-77
2021/10/27 15:23:11;;;;;;;4.20;2.00;;;;;;;14.41;nan;101276.84;5032101;28;20109;-77
2021/10/27 15:28:44;;;;;;;2.60;1.50;;;;;;;14.19;nan;101262.28;5029955;28;20560;-76
2021/10/27 15:37:00;;;;;;;3.80;1.42;;;;;;;13.89;nan;101268.06;5031196;28;20096;-77
2021/10/27 15:42:41;;;;;;;2.97;1.23;;;;;;;13.71;nan;101260.13;5031084;28;20048;-76
2021/10/27 15:45:30;;;;;;;2.63;1.67;;;;;;;13.62;nan;101258.41;5031202;28;20034;-77
2021/10/27 15:50:47;;;;;;;2.88;1.50;;;;;;;13.44;nan;101258.38;5030907;28;20052;-76
2021/10/27 15:53:13;;;;;;;2.83;1.60;;;;;;;13.35;nan;101260.16;5031833;28;20029;-77
2021/10/27 15:55:38;;;;;;;3.10;1.60;;;;;;;13.29;nan;101264.22;5030286;28;20033;-77
2021/10/27 15:58:04;;;;;;;2.75;1.30;;;;;;;13.23;nan;101261.31;5032360;28;20068;-77
2021/10/27 16:00:29;;;;;;;2.42;1.10;;;;;;;13.17;nan;101260.09;5031134;28;20033;-77
2021/10/27 16:02:55;;;;;;;1.85;1.13;;;;;;;13.13;nan;101259.59;5031452;28;20111;-77
2021/10/27 16:05:21;;;;;;;1.67;0.93;;;;;;;13.08;nan;101264.47;5031594;28;20030;-77
2021/10/27 16:07:49;;;;;;;2.20;1.20;;;;;;;13.02;nan;101266.94;5030278;28;20067;-77
2021/10/27 16:10:18;;;;;;;2.28;1.00;;;;;;;12.96;nan;101268.34;5030849;28;20069;-77
2021/10/27 16:12:44;;;;;;;2.10;1.08;;;;;;;12.91;nan;101268.78;5031498;28;20116;-77
2021/10/27 16:15:21;;;;;;;3.45;1.48;;;;;;;12.87;nan;101269.22;5030143;28;20040;-77
2021/10/27 16:17:46;;;;;;;3.25;1.50;;;;;;;12.79;nan;101264.66;5031509;28;20116;-77
2021/10/27 16:20:12;;;;;;;2.60;1.60;;;;;;;12.69;nan;101272.69;5030823;28;20120;-77
2021/10/27 16:22:37;;;;;;;4.30;1.80;;;;;;;12.61;nan;101269.94;5031463;28;20426;-77
2021/10/27 16:25:04;;;;;;;2.83;1.65;;;;;;;12.53;nan;101275.13;5030600;28;20118;-77
2021/10/27 16:27:29;;;;;;;2.90;1.52;;;;;;;12.46;nan;101271.38;5030843;28;20033;-77
2021/10/27 16:29:55;;;;;;;2.60;1.48;;;;;;;12.35;nan;101272.41;5031376;28;20395;-77